createdAt,value
2023-05-01T00:00:19.838Z,5.65
2023-05-01T00:01:21.626Z,5.65
2023-05-01T00:02:24.235Z,5.67
2023-05-01T00:03:25.961Z,5.79
2023-05-01T00:04:30.227Z,5.98
2023-05-01T00:05:31.775Z,6.09
2023-05-01T00:06:34.416Z,6.25
2023-05-01T00:07:36.047Z,6.22
2023-05-01T00:08:38.592Z,6.35
2023-05-01T00:09:40.092Z,6.40
2023-05-01T00:10:42.951Z,6.20
2023-05-01T00:11:44.564Z,5.51
2023-05-01T00:12:46.998Z,5.27
2023-05-01T00:13:48.510Z,5.25
2023-05-01T00:14:51.313Z,5.37
2023-05-01T00:15:53.990Z,5.22
2023-05-01T00:16:56.772Z,5.22
2023-05-01T00:17:58.777Z,5.27
2023-05-01T00:19:01.312Z,5.39
2023-05-01T00:20:05.489Z,5.35
2023-05-01T00:21:07.955Z,5.59
2023-05-01T00:22:09.520Z,5.64
2023-05-01T00:23:12.471Z,5.89
2023-05-01T00:24:14.155Z,5.70
2023-05-01T00:25:16.617Z,5.73
2023-05-01T00:26:18.135Z,5.69
2023-05-01T00:27:20.612Z,5.85
2023-05-01T00:28:22.148Z,5.84
2023-05-01T00:29:24.687Z,5.74
2023-05-01T00:30:27.636Z,5.58
2023-05-01T00:31:30.175Z,5.63
2023-05-01T00:32:31.726Z,5.43
2023-05-01T00:33:34.439Z,5.15
2023-05-01T00:34:35.978Z,5.05
2023-05-01T00:35:39.772Z,4.60
2023-05-01T00:36:41.485Z,4.64
2023-05-01T00:37:44.157Z,4.86
2023-05-01T00:38:46.376Z,5.08
2023-05-01T00:39:48.806Z,5.03
2023-05-01T00:40:50.797Z,4.76
2023-05-01T00:41:54.853Z,4.67
2023-05-01T00:42:56.625Z,4.19
2023-05-01T00:43:59.587Z,4.23
2023-05-01T00:45:02.109Z,3.95
2023-05-01T00:46:04.798Z,3.89
2023-05-01T00:47:06.443Z,3.65
2023-05-01T00:48:10.907Z,3.74
2023-05-01T00:49:12.790Z,4.12
2023-05-01T00:50:15.580Z,4.08
2023-05-01T00:51:19.908Z,3.95
2023-05-01T00:52:22.397Z,4.23
2023-05-01T00:53:24.248Z,4.01
2023-05-01T00:54:28.320Z,4.29
2023-05-01T00:55:31.376Z,4.56
2023-05-01T00:56:33.901Z,4.60
2023-05-01T00:57:35.922Z,4.81
2023-05-01T00:58:38.995Z,4.76
2023-05-01T00:59:41.241Z,5.04
2023-05-01T01:00:43.943Z,5.24
2023-05-01T01:01:45.597Z,5.39
2023-05-01T01:02:48.183Z,5.56
2023-05-01T01:03:51.355Z,5.68
2023-05-01T01:04:54.385Z,5.68
2023-05-01T01:06:00.343Z,5.71
2023-05-01T01:07:11.393Z,5.65
2023-05-01T01:08:21.885Z,5.56
2023-05-01T01:09:33.142Z,5.15
2023-05-01T01:10:41.055Z,5.16
2023-05-01T01:11:54.402Z,4.71
2023-05-01T01:13:04.605Z,4.92
2023-05-01T01:14:11.688Z,5.21
2023-05-01T01:15:19.102Z,5.44
2023-05-01T01:16:29.045Z,5.34
2023-05-01T01:17:35.090Z,5.51
2023-05-01T01:18:42.453Z,5.35
2023-05-01T01:20:08.045Z,5.56
2023-05-01T01:21:18.083Z,5.60
2023-05-01T01:22:24.388Z,5.58
2023-05-01T01:24:04.136Z,5.47
2023-05-01T01:25:33.623Z,5.35
2023-05-01T01:27:09.583Z,5.51
2023-05-01T01:28:24.630Z,5.23
2023-05-01T01:29:57.446Z,5.42
2023-05-01T01:31:12.402Z,5.33
2023-05-01T01:32:45.513Z,5.17
2023-05-01T01:33:58.946Z,5.12
2023-05-01T01:35:05.772Z,5.19
2023-05-01T01:36:15.239Z,4.84
2023-05-01T01:37:21.923Z,4.86
2023-05-01T01:38:29.430Z,5.16
2023-05-01T01:39:47.015Z,5.11
2023-05-01T01:40:56.191Z,5.29
2023-05-01T01:42:00.430Z,5.10
2023-05-01T01:43:05.461Z,4.83
2023-05-01T01:44:13.201Z,4.09
2023-05-01T01:45:20.615Z,3.57
2023-05-01T01:46:24.205Z,3.32
2023-05-01T01:47:31.699Z,3.12
2023-05-01T01:48:36.189Z,3.03
2023-05-01T01:49:46.338Z,3.20
2023-05-01T01:50:49.045Z,3.21
2023-05-01T01:51:53.676Z,3.17
2023-05-01T01:52:58.948Z,3.17
2023-05-01T01:54:03.043Z,3.54
2023-05-01T01:55:07.601Z,3.76
2023-05-01T01:56:11.371Z,4.05
2023-05-01T01:57:17.154Z,4.13
2023-05-01T01:58:21.517Z,4.31
2023-05-01T01:59:26.458Z,4.49
2023-05-01T02:00:29.025Z,4.68
2023-05-01T02:01:32.007Z,4.88
2023-05-01T02:02:33.736Z,4.72
2023-05-01T02:03:38.682Z,4.80
2023-05-01T02:04:42.986Z,4.96
2023-05-01T02:05:47.756Z,5.05
2023-05-01T02:06:50.020Z,5.08
2023-05-01T02:07:53.915Z,4.86
2023-05-01T02:08:57.067Z,4.51
2023-05-01T02:10:00.497Z,4.64
2023-05-01T02:11:03.585Z,4.91
2023-05-01T02:12:08.710Z,4.99
2023-05-01T02:13:12.161Z,5.03
2023-05-01T02:14:16.269Z,4.38
2023-05-01T02:15:19.022Z,3.66
2023-05-01T02:16:25.347Z,3.06
2023-05-01T02:17:28.714Z,2.87
2023-05-01T02:18:32.323Z,2.92
2023-05-01T02:19:34.784Z,2.94
2023-05-01T02:20:38.757Z,2.89
2023-05-01T02:21:42.705Z,3.03
2023-05-01T02:22:47.414Z,3.33
2023-05-01T02:23:49.050Z,3.48
2023-05-01T02:24:53.309Z,3.61
2023-05-01T02:25:57.302Z,4.02
2023-05-01T02:27:06.436Z,4.18
2023-05-01T02:28:12.379Z,3.83
2023-05-01T02:29:14.857Z,3.74
2023-05-01T02:30:18.772Z,3.60
2023-05-01T02:31:22.027Z,4.00
2023-05-01T02:32:23.766Z,4.29
2023-05-01T02:33:26.685Z,4.38
2023-05-01T02:34:28.171Z,4.56
2023-05-01T02:35:30.599Z,4.81
2023-05-01T02:36:33.457Z,4.81
2023-05-01T02:37:35.916Z,4.60
2023-05-01T02:38:37.454Z,4.58
2023-05-01T02:39:40.687Z,4.50
2023-05-01T02:40:45.515Z,4.71
2023-05-01T02:41:49.740Z,4.41
2023-05-01T02:42:52.467Z,4.31
2023-05-01T02:44:01.556Z,4.59
2023-05-01T02:45:06.599Z,4.73
2023-05-01T02:46:11.286Z,4.84
2023-05-01T02:47:16.724Z,4.49
2023-05-01T02:48:22.930Z,4.13
2023-05-01T02:49:24.881Z,4.13
2023-05-01T02:50:27.962Z,3.87
2023-05-01T02:51:31.779Z,3.81
2023-05-01T02:52:36.067Z,3.91
2023-05-01T02:53:39.630Z,3.91
2023-05-01T02:54:43.464Z,3.88
2023-05-01T02:55:45.156Z,3.53
2023-05-01T02:56:47.616Z,3.57
2023-05-01T02:57:50.939Z,3.44
2023-05-01T02:58:53.433Z,3.34
2023-05-01T02:59:55.083Z,3.20
2023-05-01T03:00:57.812Z,3.07
2023-05-01T03:01:59.904Z,3.04
2023-05-01T03:03:02.367Z,3.16
2023-05-01T03:04:04.352Z,3.36
2023-05-01T03:05:07.808Z,3.40
2023-05-01T03:06:09.507Z,3.15
2023-05-01T03:07:12.064Z,3.06
2023-05-01T03:08:15.113Z,3.19
2023-05-01T03:09:17.637Z,3.52
2023-05-01T03:10:19.349Z,3.76
2023-05-01T03:11:22.275Z,3.86
2023-05-01T03:12:23.938Z,4.16
2023-05-01T03:13:26.343Z,4.16
2023-05-01T03:14:28.524Z,4.44
2023-05-01T03:15:30.996Z,4.61
2023-05-01T03:16:32.528Z,4.64
2023-05-01T03:17:35.210Z,4.71
2023-05-01T03:18:36.666Z,4.82
2023-05-01T03:19:39.081Z,4.75
2023-05-01T03:20:40.767Z,4.83
2023-05-01T03:21:43.163Z,4.96
2023-05-01T03:22:44.725Z,4.94
2023-05-01T03:23:49.034Z,4.98
2023-05-01T03:24:50.982Z,4.86
2023-05-01T03:25:54.667Z,4.54
2023-05-01T03:26:56.194Z,4.41
2023-05-01T03:27:58.723Z,4.68
2023-05-01T03:29:00.240Z,4.87
2023-05-01T03:30:21.687Z,4.95
2023-05-01T03:31:42.732Z,4.88
2023-05-01T03:33:03.129Z,4.27
2023-05-01T03:34:26.793Z,4.20
2023-05-01T03:35:48.753Z,4.50
2023-05-01T03:37:11.964Z,4.04
2023-05-01T03:38:33.822Z,3.40
2023-05-01T03:39:58.123Z,2.81
2023-05-01T03:41:21.465Z,2.86
2023-05-01T03:42:43.380Z,3.22
2023-05-01T03:44:06.139Z,3.13
2023-05-01T03:45:28.268Z,3.44
2023-05-01T03:46:51.079Z,3.76
2023-05-01T03:48:13.734Z,4.07
2023-05-01T03:49:36.710Z,4.32
2023-05-01T03:50:58.512Z,4.43
2023-05-01T03:52:21.247Z,4.49
2023-05-01T03:53:43.249Z,4.71
2023-05-01T03:55:09.499Z,4.60
2023-05-01T03:56:35.523Z,4.63
2023-05-01T03:57:58.699Z,4.78
2023-05-01T03:59:20.568Z,4.82
2023-05-01T04:00:43.500Z,4.91
2023-05-01T04:02:05.404Z,4.37
2023-05-01T04:03:28.561Z,4.30
2023-05-01T04:04:50.528Z,4.55
2023-05-01T04:06:13.826Z,4.83
2023-05-01T04:07:35.844Z,4.85
2023-05-01T04:08:58.596Z,5.05
2023-05-01T04:10:21.744Z,5.22
2023-05-01T04:11:44.578Z,5.31
2023-05-01T04:13:06.935Z,4.82
2023-05-01T04:14:29.915Z,4.86
2023-05-01T04:15:52.951Z,5.07
2023-05-01T04:17:15.798Z,5.17
2023-05-01T04:18:37.615Z,5.04
2023-05-01T04:20:00.974Z,5.18
2023-05-01T04:21:23.939Z,4.52
2023-05-01T04:22:45.783Z,3.96
2023-05-01T04:24:08.574Z,3.61
2023-05-01T04:25:32.647Z,3.23
2023-05-01T04:26:55.433Z,2.94
2023-05-01T04:28:17.245Z,3.22
2023-05-01T04:29:40.859Z,3.69
2023-05-01T04:31:03.959Z,4.25
2023-05-01T04:32:27.151Z,4.63
2023-05-01T04:33:49.182Z,4.93
2023-05-01T04:35:12.225Z,5.05
2023-05-01T04:36:34.975Z,5.10
2023-05-01T04:37:57.763Z,5.14
2023-05-01T04:39:20.566Z,5.26
2023-05-01T04:40:44.648Z,5.35
2023-05-01T04:42:07.482Z,5.50
2023-05-01T04:43:29.285Z,5.53
2023-05-01T04:44:52.068Z,5.60
2023-05-01T04:46:14.918Z,5.62
2023-05-01T04:47:37.806Z,5.60
2023-05-01T04:48:59.655Z,5.55
2023-05-01T04:50:22.656Z,5.41
2023-05-01T04:51:45.832Z,5.50
2023-05-01T04:53:08.683Z,5.44
2023-05-01T04:54:31.735Z,5.64
2023-05-01T04:55:55.092Z,5.85
2023-05-01T04:57:17.906Z,5.93
2023-05-01T04:58:40.743Z,5.99
2023-05-01T05:00:04.200Z,6.17
2023-05-01T05:01:27.043Z,6.35
2023-05-01T05:02:49.011Z,6.38
2023-05-01T05:04:12.549Z,6.30
2023-05-01T05:05:35.251Z,6.39
2023-05-01T05:06:57.995Z,6.37
2023-05-01T05:08:19.895Z,6.45
2023-05-01T05:09:42.737Z,6.39
2023-05-01T05:11:05.889Z,6.35
2023-05-01T05:12:28.907Z,6.29
2023-05-01T05:13:51.823Z,6.44
2023-05-01T05:15:14.616Z,6.49
2023-05-01T05:16:36.559Z,6.65
2023-05-01T05:17:59.427Z,6.57
2023-05-01T05:19:22.319Z,6.60
2023-05-01T05:20:44.428Z,6.71
2023-05-01T05:22:07.820Z,6.75
2023-05-01T05:23:29.648Z,6.70
2023-05-01T05:24:54.892Z,6.51
2023-05-01T05:26:19.269Z,6.41
2023-05-01T05:27:41.075Z,6.40
2023-05-01T05:29:04.925Z,6.66
2023-05-01T05:30:27.260Z,5.73
2023-05-01T05:31:50.191Z,6.10
2023-05-01T05:33:12.129Z,6.47
2023-05-01T05:34:35.013Z,6.39
2023-05-01T05:35:59.367Z,6.57
2023-05-01T05:37:22.137Z,6.57
2023-05-01T05:38:45.124Z,6.49
2023-05-01T05:40:09.611Z,6.15
2023-05-01T05:41:33.737Z,6.47
2023-05-01T05:42:57.083Z,6.69
2023-05-01T05:44:19.831Z,6.94
2023-05-01T05:45:42.661Z,6.95
2023-05-01T05:47:04.632Z,7.16
2023-05-01T05:48:27.944Z,7.31
2023-05-01T05:49:50.778Z,7.13
2023-05-01T05:51:13.592Z,7.19
2023-05-01T05:52:35.477Z,7.27
2023-05-01T05:53:58.255Z,7.22
2023-05-01T05:55:20.086Z,7.42
2023-05-01T05:56:44.648Z,7.47
2023-05-01T05:58:06.792Z,7.64
2023-05-01T05:59:29.777Z,7.50
2023-05-01T06:00:55.609Z,7.58
2023-05-01T06:02:17.465Z,7.61
2023-05-01T06:03:40.511Z,7.55
2023-05-01T06:05:03.479Z,7.71
2023-05-01T06:06:27.645Z,7.72
2023-05-01T06:07:51.098Z,7.68
2023-05-01T06:09:14.734Z,7.77
2023-05-01T06:10:39.495Z,7.65
2023-05-01T06:12:05.941Z,7.80
2023-05-01T06:13:28.714Z,7.85
2023-05-01T06:14:52.263Z,7.84
2023-05-01T06:16:16.042Z,7.36
2023-05-01T06:17:38.036Z,7.40
2023-05-01T06:19:00.832Z,7.71
2023-05-01T06:20:23.256Z,7.77
2023-05-01T06:21:46.690Z,7.95
2023-05-01T06:23:09.990Z,8.14
2023-05-01T06:24:32.986Z,8.07
2023-05-01T06:25:55.929Z,8.15
2023-05-01T06:27:19.073Z,8.38
2023-05-01T06:28:42.063Z,8.33
2023-05-01T06:30:06.815Z,8.58
2023-05-01T06:31:29.657Z,8.67
2023-05-01T06:32:51.582Z,8.49
2023-05-01T06:34:14.385Z,8.68
2023-05-01T06:35:37.301Z,8.72
2023-05-01T06:37:00.146Z,8.84
2023-05-01T06:38:24.475Z,8.72
2023-05-01T06:39:49.108Z,8.93
2023-05-01T06:41:11.895Z,9.09
2023-05-01T06:42:36.254Z,8.81
2023-05-01T06:43:58.637Z,9.01
2023-05-01T06:45:21.586Z,9.24
2023-05-01T06:46:44.441Z,9.26
2023-05-01T06:48:07.363Z,9.07
2023-05-01T06:49:30.196Z,9.03
2023-05-01T06:50:52.947Z,9.03
2023-05-01T06:52:14.754Z,9.27
2023-05-01T06:53:37.624Z,9.62
2023-05-01T06:55:00.438Z,9.43
2023-05-01T06:56:23.217Z,9.11
2023-05-01T06:57:47.275Z,9.49
2023-05-01T06:59:10.334Z,9.72
2023-05-01T07:00:33.271Z,9.97
2023-05-01T07:01:56.093Z,10.19
2023-05-01T07:03:18.138Z,10.35
2023-05-01T07:04:41.794Z,10.49
2023-05-01T07:06:05.104Z,10.54
2023-05-01T07:07:27.950Z,10.59
2023-05-01T07:08:51.966Z,10.64
2023-05-01T07:10:14.850Z,10.82
2023-05-01T07:11:38.290Z,10.39
2023-05-01T07:13:02.780Z,10.39
2023-05-01T07:14:25.701Z,10.80
2023-05-01T07:15:49.083Z,10.79
2023-05-01T07:17:11.908Z,10.83
2023-05-01T07:18:35.585Z,10.94
2023-05-01T07:19:57.747Z,11.03
2023-05-01T07:21:20.733Z,11.34
2023-05-01T07:22:42.635Z,11.20
2023-05-01T07:24:06.278Z,10.99
2023-05-01T07:25:29.001Z,11.02
2023-05-01T07:26:51.890Z,11.25
2023-05-01T07:28:18.038Z,11.41
2023-05-01T07:29:40.978Z,11.69
2023-05-01T07:31:04.359Z,11.86
2023-05-01T07:32:26.440Z,12.00
2023-05-01T07:33:50.015Z,12.06
2023-05-01T07:35:13.854Z,12.22
2023-05-01T07:36:36.619Z,12.15
2023-05-01T07:37:59.561Z,11.81
2023-05-01T07:39:22.311Z,11.49
2023-05-01T07:40:44.426Z,11.59
2023-05-01T07:42:07.512Z,11.88
2023-05-01T07:43:31.653Z,12.08
2023-05-01T07:44:54.506Z,12.42
2023-05-01T07:46:17.510Z,12.29
2023-05-01T07:47:40.763Z,12.47
2023-05-01T07:49:04.222Z,12.76
2023-05-01T07:50:27.261Z,13.00
2023-05-01T07:51:50.112Z,13.03
2023-05-01T07:53:12.946Z,13.10
2023-05-01T07:54:35.837Z,13.06
2023-05-01T07:56:06.079Z,13.11
2023-05-01T07:57:28.873Z,13.07
2023-05-01T07:58:52.937Z,13.36
2023-05-01T08:00:16.930Z,12.90
2023-05-01T08:01:39.825Z,13.11
2023-05-01T08:03:03.109Z,13.45
2023-05-01T08:04:26.030Z,13.52
2023-05-01T08:05:47.928Z,13.79
2023-05-01T08:07:10.717Z,13.88
2023-05-01T08:08:33.532Z,14.20
2023-05-01T08:09:59.206Z,14.40
2023-05-01T08:11:22.926Z,13.84
2023-05-01T08:12:46.002Z,13.92
2023-05-01T08:14:10.670Z,13.79
2023-05-01T08:15:33.534Z,13.50
2023-05-01T08:16:56.304Z,13.40
2023-05-01T08:18:21.292Z,13.68
2023-05-01T08:19:45.155Z,13.76
2023-05-01T08:21:07.889Z,13.49
2023-05-01T08:22:31.323Z,13.49
2023-05-01T08:23:56.944Z,13.83
2023-05-01T08:25:19.335Z,13.48
2023-05-01T08:26:42.219Z,13.48
2023-05-01T08:28:05.465Z,13.30
2023-05-01T08:29:29.844Z,13.69
2023-05-01T08:30:52.607Z,14.06
2023-05-01T08:32:15.416Z,14.36
2023-05-01T08:33:38.224Z,14.33
2023-05-01T08:35:01.002Z,14.41
2023-05-01T08:36:24.215Z,14.33
2023-05-01T08:37:47.229Z,14.29
2023-05-01T08:39:10.049Z,14.36
2023-05-01T08:40:36.986Z,14.63
2023-05-01T08:42:00.524Z,14.78
2023-05-01T08:43:24.247Z,14.56
2023-05-01T08:44:50.971Z,14.89
2023-05-01T08:46:16.745Z,15.25
2023-05-01T08:47:41.097Z,15.23
2023-05-01T08:49:06.815Z,15.50
2023-05-01T08:50:30.246Z,15.56
2023-05-01T08:51:56.630Z,15.73
2023-05-01T08:53:21.153Z,15.65
2023-05-01T08:54:45.616Z,15.89
2023-05-01T08:56:13.645Z,15.51
2023-05-01T08:57:37.990Z,15.60
2023-05-01T08:59:03.297Z,15.59
2023-05-01T09:00:28.242Z,15.96
2023-05-01T09:01:52.310Z,15.66
2023-05-01T09:03:15.487Z,15.67
2023-05-01T09:04:39.895Z,15.23
2023-05-01T09:06:04.187Z,15.49
2023-05-01T09:07:27.283Z,15.91
2023-05-01T09:08:50.402Z,16.24
2023-05-01T09:10:12.842Z,16.44
2023-05-01T09:11:36.473Z,16.46
2023-05-01T09:13:03.027Z,16.55
2023-05-01T09:14:24.978Z,16.50
2023-05-01T09:15:49.199Z,16.43
2023-05-01T09:17:12.974Z,16.11
2023-05-01T09:18:36.710Z,16.08
2023-05-01T09:19:59.313Z,15.72
2023-05-01T09:21:22.421Z,16.18
2023-05-01T09:22:45.482Z,16.73
2023-05-01T09:24:08.890Z,16.89
2023-05-01T09:25:31.128Z,16.84
2023-05-01T09:26:54.251Z,16.95
2023-05-01T09:28:17.261Z,16.80
2023-05-01T09:29:41.406Z,17.18
2023-05-01T09:31:21.921Z,17.35
2023-05-01T09:32:45.082Z,17.19
2023-05-01T09:34:08.363Z,16.65
2023-05-01T09:35:32.830Z,17.03
2023-05-01T09:36:56.056Z,17.29
2023-05-01T09:38:20.418Z,17.01
2023-05-01T09:39:43.217Z,17.26
2023-05-01T09:41:06.462Z,17.30
2023-05-01T09:42:30.617Z,17.10
2023-05-01T09:43:55.817Z,17.18
2023-05-01T09:45:19.687Z,17.05
2023-05-01T09:46:45.204Z,17.09
2023-05-01T09:48:12.240Z,17.50
2023-05-01T09:49:49.705Z,17.34
2023-05-01T09:51:23.187Z,17.52
2023-05-01T09:52:52.398Z,17.62
2023-05-01T09:54:19.454Z,17.47
2023-05-01T09:55:42.222Z,17.12
2023-05-01T09:57:05.485Z,16.59
2023-05-01T09:58:28.936Z,17.07
2023-05-01T10:00:08.114Z,17.02
2023-05-01T10:01:41.135Z,17.10
2023-05-01T10:03:14.531Z,17.61
2023-05-01T10:04:37.327Z,17.75
2023-05-01T10:06:02.008Z,18.09
2023-05-01T10:07:25.126Z,17.94
2023-05-01T10:08:49.379Z,17.59
2023-05-01T10:10:19.651Z,17.85
2023-05-01T10:11:49.320Z,17.74
2023-05-01T10:13:16.268Z,18.11
2023-05-01T10:14:51.862Z,17.83
2023-05-01T10:16:29.767Z,18.34
2023-05-01T10:17:52.934Z,18.15
2023-05-01T10:19:18.064Z,18.54
2023-05-01T10:20:41.210Z,17.84
2023-05-01T10:22:03.955Z,17.92
2023-05-01T10:23:26.802Z,18.13
2023-05-01T10:24:50.138Z,18.46
2023-05-01T10:26:14.649Z,19.66
2023-05-01T10:27:39.684Z,19.85
2023-05-01T10:29:03.411Z,19.85
2023-05-01T10:30:27.705Z,18.93
2023-05-01T10:31:50.631Z,18.13
2023-05-01T10:33:14.399Z,19.67
2023-05-01T10:34:43.290Z,20.60
2023-05-01T10:36:10.717Z,20.54
2023-05-01T10:37:38.791Z,21.17
2023-05-01T10:39:01.848Z,21.58
2023-05-01T10:40:49.901Z,22.43
2023-05-01T10:42:14.585Z,22.70
2023-05-01T10:43:37.340Z,21.53
2023-05-01T10:45:29.118Z,22.18
2023-05-01T10:46:52.155Z,22.19
2023-05-01T10:48:55.911Z,18.94
2023-05-01T10:50:18.708Z,20.27
2023-05-01T10:51:59.865Z,21.74
2023-05-01T10:53:23.751Z,22.40
2023-05-01T10:54:46.559Z,22.74
2023-05-01T10:56:46.488Z,22.46
2023-05-01T10:58:09.526Z,21.92
2023-05-01T11:00:05.920Z,22.08
2023-05-01T11:01:33.550Z,23.95
2023-05-01T11:03:29.584Z,26.00
2023-05-01T11:04:54.304Z,23.20
2023-05-01T11:06:16.519Z,24.72
2023-05-01T11:07:40.733Z,24.58
2023-05-01T11:09:02.933Z,25.53
2023-05-01T11:10:28.723Z,23.36
2023-05-01T11:11:51.965Z,21.48
2023-05-01T11:13:14.981Z,21.63
2023-05-01T11:15:04.083Z,24.97
2023-05-01T11:16:42.088Z,24.31
2023-05-01T11:18:06.519Z,23.77
2023-05-01T11:19:48.236Z,24.63
2023-05-01T11:21:11.268Z,24.73
2023-05-01T11:22:33.193Z,24.36
2023-05-01T11:23:56.036Z,24.67
2023-05-01T11:25:20.518Z,25.67
2023-05-01T11:26:44.493Z,24.63
2023-05-01T11:28:09.597Z,23.29
2023-05-01T11:29:33.758Z,23.61
2023-05-01T11:30:56.693Z,21.29
2023-05-01T11:32:23.927Z,20.59
2023-05-01T11:33:46.886Z,20.81
2023-05-01T11:35:16.654Z,21.93
2023-05-01T11:36:49.496Z,22.27
2023-05-01T11:38:19.336Z,24.01
2023-05-01T11:39:52.018Z,23.59
2023-05-01T11:41:15.380Z,21.49
2023-05-01T11:42:38.194Z,22.21
2023-05-01T11:44:02.348Z,24.00
2023-05-01T11:45:24.377Z,24.00
2023-05-01T11:46:47.159Z,23.47
2023-05-01T11:48:15.918Z,23.08
2023-05-01T11:49:38.972Z,22.75
2023-05-01T11:51:01.779Z,23.01
2023-05-01T11:52:23.572Z,23.01
2023-05-01T11:54:00.620Z,23.34
2023-05-01T11:55:32.136Z,24.63
2023-05-01T11:57:01.624Z,23.14
2023-05-01T11:58:36.172Z,22.76
2023-05-01T12:00:00.359Z,23.73
2023-05-01T12:01:23.307Z,23.17
2023-05-01T12:03:03.219Z,19.73
2023-05-01T12:04:32.097Z,20.43
2023-05-01T12:05:55.367Z,22.02
2023-05-01T12:07:21.692Z,22.43
2023-05-01T12:08:50.327Z,22.09
2023-05-01T12:10:13.211Z,21.47
2023-05-01T12:11:36.362Z,21.00
2023-05-01T12:12:59.351Z,21.60
2023-05-01T12:14:24.315Z,21.86
2023-05-01T12:15:51.570Z,21.67
2023-05-01T12:17:14.456Z,21.56
2023-05-01T12:18:37.799Z,21.61
2023-05-01T12:20:00.736Z,22.43
2023-05-01T12:21:25.231Z,23.13
2023-05-01T12:22:50.418Z,22.74
2023-05-01T12:24:15.034Z,21.72
2023-05-01T12:25:39.460Z,21.70
2023-05-01T12:27:03.468Z,21.21
2023-05-01T12:28:27.623Z,22.33
2023-05-01T12:29:50.537Z,21.86
2023-05-01T12:31:14.125Z,20.05
2023-05-01T12:32:36.983Z,19.70
2023-05-01T12:34:01.813Z,20.27
2023-05-01T12:35:29.774Z,20.24
2023-05-01T12:36:55.023Z,20.71
2023-05-01T12:38:20.003Z,21.08
2023-05-01T12:39:45.473Z,21.28
2023-05-01T12:41:09.499Z,21.07
2023-05-01T12:42:32.513Z,22.07
2023-05-01T12:43:55.470Z,21.85
2023-05-01T12:45:18.315Z,21.72
2023-05-01T12:46:42.862Z,22.23
2023-05-01T12:48:11.275Z,23.16
2023-05-01T12:49:36.929Z,22.90
2023-05-01T12:50:59.891Z,21.73
2023-05-01T12:52:27.901Z,21.80
2023-05-01T12:53:51.669Z,22.03
2023-05-01T12:55:14.689Z,22.42
2023-05-01T12:56:37.475Z,22.27
2023-05-01T12:58:00.360Z,22.78
2023-05-01T12:59:24.293Z,22.35
2023-05-01T13:00:49.125Z,22.02
2023-05-01T13:02:16.053Z,21.61
2023-05-01T13:03:44.990Z,21.13
2023-05-01T13:05:07.947Z,21.38
2023-05-01T13:06:34.532Z,21.25
2023-05-01T13:07:58.959Z,20.58
2023-05-01T13:09:21.966Z,20.80
2023-05-01T13:10:44.756Z,20.49
2023-05-01T13:12:09.775Z,20.21
2023-05-01T13:13:35.860Z,20.70
2023-05-01T13:14:59.448Z,20.74
2023-05-01T13:16:24.650Z,20.96
2023-05-01T13:17:49.173Z,20.96
2023-05-01T13:19:11.942Z,21.36
2023-05-01T13:20:36.531Z,21.68
2023-05-01T13:21:59.884Z,22.06
2023-05-01T13:23:22.836Z,21.80
2023-05-01T13:24:45.747Z,21.71
2023-05-01T13:26:10.567Z,21.63
2023-05-01T13:27:33.627Z,21.99
2023-05-01T13:28:57.305Z,22.28
2023-05-01T13:30:22.622Z,22.22
2023-05-01T13:31:46.633Z,21.63
2023-05-01T13:33:11.874Z,20.79
2023-05-01T13:34:37.426Z,20.82
2023-05-01T13:36:00.846Z,20.64
2023-05-01T13:37:26.476Z,20.82
2023-05-01T13:38:51.448Z,21.35
2023-05-01T13:40:15.177Z,21.94
2023-05-01T13:41:42.328Z,21.28
2023-05-01T13:43:05.101Z,21.65
2023-05-01T13:44:29.143Z,21.03
2023-05-01T13:45:52.002Z,21.04
2023-05-01T13:47:17.626Z,20.85
2023-05-01T13:48:42.271Z,20.87
2023-05-01T13:50:05.368Z,21.33
2023-05-01T13:51:28.255Z,21.27
2023-05-01T13:52:51.020Z,21.27
2023-05-01T13:54:13.979Z,21.25
2023-05-01T13:55:40.884Z,21.29
2023-05-01T13:57:03.706Z,21.33
2023-05-01T13:58:26.728Z,21.56
2023-05-01T13:59:49.519Z,21.24
2023-05-01T14:01:16.306Z,21.27
2023-05-01T14:02:45.284Z,21.04
2023-05-01T14:04:11.788Z,21.15
2023-05-01T14:05:34.816Z,21.86
2023-05-01T14:06:59.040Z,22.06
2023-05-01T14:08:22.550Z,22.20
2023-05-01T14:09:45.701Z,22.71
2023-05-01T14:11:10.179Z,21.59
2023-05-01T14:12:33.928Z,21.68
2023-05-01T14:14:00.756Z,21.13
2023-05-01T14:15:24.292Z,21.12
2023-05-01T14:16:48.851Z,21.74
2023-05-01T14:18:12.678Z,21.97
2023-05-01T14:19:37.450Z,21.58
2023-05-01T14:21:00.331Z,20.95
2023-05-01T14:22:23.198Z,20.97
2023-05-01T14:23:46.146Z,21.31
2023-05-01T14:25:24.107Z,21.65
2023-05-01T14:26:49.302Z,21.15
2023-05-01T14:28:12.535Z,20.92
2023-05-01T14:29:35.622Z,20.87
2023-05-01T14:30:58.694Z,20.75
2023-05-01T14:32:21.487Z,20.67
2023-05-01T14:33:44.666Z,20.04
2023-05-01T14:35:10.960Z,20.21
2023-05-01T14:36:34.092Z,20.72
2023-05-01T14:37:57.194Z,20.82
2023-05-01T14:39:20.152Z,20.42
2023-05-01T14:40:43.767Z,19.91
2023-05-01T14:42:06.605Z,19.86
2023-05-01T14:43:29.447Z,19.70
2023-05-01T14:44:52.302Z,19.73
2023-05-01T14:46:16.485Z,19.69
2023-05-01T14:47:41.589Z,19.82
2023-05-01T14:49:04.441Z,19.38
2023-05-01T14:50:28.685Z,19.43
2023-05-01T14:51:52.641Z,19.78
2023-05-01T14:53:15.548Z,19.85
2023-05-01T14:54:46.457Z,19.26
2023-05-01T14:56:09.457Z,19.39
2023-05-01T14:57:32.193Z,19.11
2023-05-01T14:58:55.149Z,19.40
2023-05-01T15:00:18.467Z,19.20
2023-05-01T15:01:41.483Z,19.51
2023-05-01T15:03:04.528Z,19.46
2023-05-01T15:04:27.428Z,19.32
2023-05-01T15:05:52.277Z,19.59
2023-05-01T15:07:15.188Z,19.91
2023-05-01T15:08:38.736Z,19.82
2023-05-01T15:10:00.826Z,20.10
2023-05-01T15:11:23.664Z,20.21
2023-05-01T15:12:46.503Z,20.04
2023-05-01T15:14:09.274Z,19.88
2023-05-01T15:15:32.030Z,19.78
2023-05-01T15:16:54.854Z,19.47
2023-05-01T15:18:18.578Z,19.83
2023-05-01T15:19:41.393Z,19.65
2023-05-01T15:21:06.007Z,19.61
2023-05-01T15:22:28.823Z,19.92
2023-05-01T15:23:52.243Z,19.85
2023-05-01T15:25:16.362Z,19.38
2023-05-01T15:26:39.161Z,19.56
2023-05-01T15:28:01.977Z,18.99
2023-05-01T15:29:24.775Z,18.90
2023-05-01T15:30:48.104Z,18.78
2023-05-01T15:32:12.738Z,18.88
2023-05-01T15:33:36.091Z,19.32
2023-05-01T15:34:59.184Z,19.06
2023-05-01T15:36:23.478Z,19.08
2023-05-01T15:37:46.946Z,19.61
2023-05-01T15:39:11.882Z,19.50
2023-05-01T15:40:34.933Z,19.18
2023-05-01T15:41:57.667Z,19.48
2023-05-01T15:43:22.306Z,19.73
2023-05-01T15:44:45.144Z,19.32
2023-05-01T15:46:08.006Z,19.31
2023-05-01T15:47:30.901Z,19.41
2023-05-01T15:48:53.687Z,19.42
2023-05-01T15:50:16.437Z,19.49
2023-05-01T15:51:40.563Z,18.81
2023-05-01T15:53:03.411Z,18.85
2023-05-01T15:54:27.698Z,18.82
2023-05-01T15:55:51.200Z,18.82
2023-05-01T15:57:17.602Z,18.84
2023-05-01T15:58:40.469Z,18.88
2023-05-01T16:00:04.371Z,18.89
2023-05-01T16:01:27.341Z,18.85
2023-05-01T16:02:50.619Z,19.24
2023-05-01T16:04:13.770Z,19.00
2023-05-01T16:05:38.067Z,18.46
2023-05-01T16:07:05.921Z,18.31
2023-05-01T16:08:28.829Z,18.70
2023-05-01T16:09:51.568Z,18.86
2023-05-01T16:11:14.293Z,18.98
2023-05-01T16:12:37.106Z,19.48
2023-05-01T16:14:00.550Z,19.57
2023-05-01T16:15:23.681Z,19.56
2023-05-01T16:16:46.480Z,19.59
2023-05-01T16:18:09.380Z,19.74
2023-05-01T16:19:32.300Z,19.79
2023-05-01T16:20:56.517Z,19.70
2023-05-01T16:22:21.275Z,19.29
2023-05-01T16:23:44.062Z,19.66
2023-05-01T16:25:07.767Z,19.50
2023-05-01T16:26:31.428Z,19.38
2023-05-01T16:27:54.210Z,19.70
2023-05-01T16:29:17.184Z,20.04
2023-05-01T16:30:42.204Z,20.12
2023-05-01T16:32:06.050Z,20.28
2023-05-01T16:33:29.413Z,20.26
2023-05-01T16:34:52.286Z,20.21
2023-05-01T16:36:16.402Z,19.40
2023-05-01T16:37:40.557Z,18.59
2023-05-01T16:39:03.662Z,18.56
2023-05-01T16:40:26.522Z,19.06
2023-05-01T16:41:50.610Z,19.52
2023-05-01T16:43:13.868Z,19.84
2023-05-01T16:44:37.340Z,20.02
2023-05-01T16:46:00.499Z,20.05
2023-05-01T16:47:23.588Z,20.04
2023-05-01T16:48:46.369Z,20.18
2023-05-01T16:50:10.546Z,20.28
2023-05-01T16:51:33.311Z,20.35
2023-05-01T16:52:58.204Z,20.38
2023-05-01T16:54:21.536Z,20.23
2023-05-01T16:55:45.109Z,20.22
2023-05-01T16:57:08.171Z,20.36
2023-05-01T16:58:30.929Z,20.33
2023-05-01T16:59:53.709Z,20.28
2023-05-01T17:01:17.103Z,20.38
2023-05-01T17:02:39.999Z,20.21
2023-05-01T17:04:03.386Z,20.19
2023-05-01T17:05:26.829Z,19.93
2023-05-01T17:06:49.778Z,19.61
2023-05-01T17:08:14.057Z,19.71
2023-05-01T17:09:36.853Z,19.73
2023-05-01T17:10:59.653Z,19.64
2023-05-01T17:12:22.625Z,19.43
2023-05-01T17:13:45.421Z,19.42
2023-05-01T17:15:10.376Z,19.24
2023-05-01T17:16:34.282Z,18.70
2023-05-01T17:17:56.173Z,18.68
2023-05-01T17:19:18.961Z,18.69